createdAt,value
2019-03-04T00:00:28.052Z,0.49
2019-03-04T00:01:37.980Z,0.47
2019-03-04T00:02:47.904Z,0.48
2019-03-04T00:03:57.832Z,0.45
2019-03-04T00:05:07.852Z,0.42
2019-03-04T00:06:17.777Z,0.45
2019-03-04T00:07:27.700Z,0.42
2019-03-04T00:08:37.840Z,0.45
2019-03-04T00:09:47.761Z,0.4
2019-03-04T00:10:57.522Z,0.44
2019-03-04T00:12:07.443Z,0.4
2019-03-04T00:13:17.396Z,0.45
2019-03-04T00:14:27.324Z,0.39
2019-03-04T00:15:37.240Z,0.33
2019-03-04T00:16:47.210Z,0.36
2019-03-04T00:17:57.131Z,0.34
2019-03-04T00:19:07.049Z,0.36
2019-03-04T00:20:16.968Z,0.37
2019-03-04T00:21:26.897Z,0.31
2019-03-04T00:22:36.927Z,0.31
2019-03-04T00:23:46.846Z,0.29
2019-03-04T00:24:56.759Z,0.33
2019-03-04T00:26:06.823Z,0.29
2019-03-04T00:27:16.497Z,0.27
2019-03-04T00:28:26.519Z,0.29
2019-03-04T00:29:36.439Z,0.2
2019-03-04T00:30:46.365Z,0.3
2019-03-04T00:31:56.286Z,0.26
2019-03-04T00:33:05.948Z,0.3
2019-03-04T00:34:15.874Z,0.26
2019-03-04T00:35:25.790Z,0.27
2019-03-04T00:36:35.706Z,0.31
2019-03-04T00:37:45.627Z,0.29
2019-03-04T00:38:55.553Z,0.24
2019-03-04T00:40:05.580Z,0.26
2019-03-04T00:41:15.496Z,0.29
2019-03-04T00:42:25.170Z,0.31
2019-03-04T00:43:35.099Z,0.23
2019-03-04T00:44:45.015Z,0.18
2019-03-04T00:45:54.784Z,0.2
2019-03-04T00:47:04.714Z,0.27
2019-03-04T00:48:14.632Z,0.2
2019-03-04T00:49:24.566Z,0.13
2019-03-04T00:50:34.483Z,0.19
2019-03-04T00:51:44.462Z,0.19
2019-03-04T00:52:54.383Z,0.13
2019-03-04T00:54:04.300Z,0.23
2019-03-04T00:55:14.225Z,0.16
2019-03-04T00:56:24.144Z,0.29
2019-03-04T00:57:34.111Z,0.33
2019-03-04T00:58:43.779Z,0.33
2019-03-04T00:59:53.703Z,0.3
2019-03-04T01:01:03.376Z,0.33
2019-03-04T01:02:13.293Z,0.33
2019-03-04T01:03:23.393Z,0.33
2019-03-04T01:04:33.323Z,0.33
2019-03-04T01:05:43.248Z,0.31
2019-03-04T01:06:53.163Z,0.3
2019-03-04T01:08:03.085Z,0.29
2019-03-04T01:09:12.751Z,0.3
2019-03-04T01:10:22.676Z,0.33
2019-03-04T01:11:32.594Z,0.34
2019-03-04T01:12:42.519Z,0.3
2019-03-04T01:13:52.438Z,0.31
2019-03-04T01:15:02.407Z,0.34
2019-03-04T01:16:12.326Z,0.31
2019-03-04T01:17:22.270Z,0.39
2019-03-04T01:18:32.188Z,0.37
2019-03-04T01:19:42.109Z,0.39
2019-03-04T01:20:52.139Z,0.33
2019-03-04T01:22:02.060Z,0.37
2019-03-04T01:23:11.980Z,0.36
2019-03-04T01:24:21.900Z,0.36
2019-03-04T01:25:31.820Z,0.31
2019-03-04T01:26:41.840Z,0.34
2019-03-04T01:27:51.794Z,0.36
2019-03-04T01:29:01.723Z,0.31
2019-03-04T01:30:11.652Z,0.36
2019-03-04T01:31:21.573Z,0.3
2019-03-04T01:32:31.591Z,0.34
2019-03-04T01:33:41.514Z,0.31
2019-03-04T01:34:51.430Z,0.33
2019-03-04T01:36:01.411Z,0.33
2019-03-04T01:37:11.335Z,0.3
2019-03-04T01:38:21.353Z,0.33
2019-03-04T01:39:31.275Z,0.34
2019-03-04T01:40:41.192Z,0.33
2019-03-04T01:41:51.107Z,0.42
2019-03-04T01:43:00.783Z,0.34
2019-03-04T01:44:10.834Z,0.47
2019-03-04T01:45:20.756Z,0.34
2019-03-04T01:46:30.688Z,0.4
2019-03-04T01:47:40.664Z,0.31
2019-03-04T01:48:50.582Z,0.33
2019-03-04T01:50:00.658Z,0.33
2019-03-04T01:51:10.574Z,0.37
2019-03-04T01:52:20.491Z,0.39
2019-03-04T01:53:30.411Z,0.36
2019-03-04T01:54:40.334Z,0.4
2019-03-04T01:55:50.300Z,0.39
2019-03-04T01:57:00.218Z,0.44
2019-03-04T01:58:10.144Z,0.39
2019-03-04T01:59:20.073Z,0.48
2019-03-04T02:00:29.996Z,0.49
2019-03-04T02:01:40.013Z,0.48
2019-03-04T02:02:49.939Z,0.45
2019-03-04T02:03:59.853Z,0.49
2019-03-04T02:05:09.767Z,0.47
2019-03-04T02:06:19.684Z,0.45
2019-03-04T02:07:29.710Z,0.49
2019-03-04T02:08:39.628Z,0.48
2019-03-04T02:09:49.568Z,0.45
2019-03-04T02:10:59.500Z,0.47
2019-03-04T02:12:09.417Z,0.51
2019-03-04T02:13:19.485Z,0.3
2019-03-04T02:14:29.403Z,0.45
2019-03-04T02:15:39.326Z,0.45
2019-03-04T02:16:49.258Z,0.37
2019-03-04T02:17:59.175Z,0.48
2019-03-04T02:19:09.254Z,0.29
2019-03-04T02:20:19.199Z,0.42
2019-03-04T02:21:29.123Z,0.37
2019-03-04T02:22:38.798Z,0.4
2019-03-04T02:23:48.714Z,0.39
2019-03-04T02:24:58.780Z,0.42
2019-03-04T02:26:08.450Z,0.34
2019-03-04T02:27:18.369Z,0.39
2019-03-04T02:28:28.288Z,0.33
2019-03-04T02:29:38.216Z,0.39
2019-03-04T02:30:48.313Z,0.37
2019-03-04T02:31:58.101Z,0.39
2019-03-04T02:33:07.792Z,0.3
2019-03-04T02:34:17.486Z,0.33
2019-03-04T02:35:27.178Z,0.33
2019-03-04T02:36:37.182Z,0.31
2019-03-04T02:37:46.871Z,0.33
2019-03-04T02:38:56.818Z,0.33
2019-03-04T02:40:06.765Z,0.34
2019-03-04T02:41:16.725Z,0.37
2019-03-04T02:42:26.747Z,0.34
2019-03-04T02:43:36.694Z,0.31
2019-03-04T02:44:46.657Z,0.29
2019-03-04T02:45:56.588Z,0.33
2019-03-04T02:47:06.514Z,0.29
2019-03-04T02:48:16.473Z,0.33
2019-03-04T02:49:26.415Z,0.29
2019-03-04T02:50:36.370Z,0.31
2019-03-04T02:51:46.312Z,0.24
2019-03-04T02:52:56.278Z,0.19
2019-03-04T02:54:06.263Z,0.2
2019-03-04T02:55:16.205Z,0.24
2019-03-04T02:56:26.148Z,0.31
2019-03-04T02:57:36.086Z,0.24
2019-03-04T02:58:46.073Z,0.27
2019-03-04T02:59:56.046Z,0.33
2019-03-04T03:01:05.992Z,0.36
2019-03-04T03:02:16.036Z,0.3
2019-03-04T03:03:25.971Z,0.27
2019-03-04T03:04:35.914Z,0.3
2019-03-04T03:05:45.885Z,0.29
2019-03-04T03:06:55.575Z,0.36
2019-03-04T03:08:05.518Z,0.34
2019-03-04T03:09:15.478Z,0.33
2019-03-04T03:10:25.421Z,0.37
2019-03-04T03:11:35.481Z,0.37
2019-03-04T03:12:45.453Z,0.37
2019-03-04T03:13:55.400Z,0.31
2019-03-04T03:15:05.393Z,0.37
2019-03-04T03:16:15.472Z,0.33
2019-03-04T03:17:25.453Z,0.37
2019-03-04T03:18:35.407Z,0.33
2019-03-04T03:19:45.351Z,0.37
2019-03-04T03:20:55.289Z,0.39
2019-03-04T03:22:04.975Z,0.31
2019-03-04T03:23:14.966Z,0.34
2019-03-04T03:24:24.912Z,0.33
2019-03-04T03:25:34.911Z,0.33
2019-03-04T03:26:44.838Z,0.31
2019-03-04T03:27:54.771Z,0.33
2019-03-04T03:29:04.795Z,0.24
2019-03-04T03:30:14.746Z,0.29
2019-03-04T03:31:24.809Z,0.26
2019-03-04T03:32:34.838Z,0.27
2019-03-04T03:33:44.881Z,0.26
2019-03-04T03:34:55.070Z,0.2
2019-03-04T03:36:05.029Z,0.13
2019-03-04T03:37:14.958Z,0.24
2019-03-04T03:38:24.905Z,0.27
2019-03-04T03:39:34.605Z,0.26
2019-03-04T03:40:44.439Z,0.27
2019-03-04T03:41:54.388Z,0.11
2019-03-04T03:43:04.084Z,0.19
2019-03-04T03:44:13.761Z,0.19
2019-03-04T03:45:23.700Z,0.18
2019-03-04T03:46:33.734Z,0.18
2019-03-04T03:47:43.663Z,0.16
2019-03-04T03:48:53.662Z,0.16
2019-03-04T03:50:03.601Z,0.16
2019-03-04T03:51:13.570Z,0.18
2019-03-04T03:52:23.504Z,0.18
2019-03-04T03:53:33.445Z,0.15
2019-03-04T03:54:43.386Z,0.11
2019-03-04T03:55:53.059Z,0.12
2019-03-04T03:57:03.001Z,0.06
2019-03-04T03:58:12.939Z,0.06
2019-03-04T03:59:22.887Z,0.06
2019-03-04T04:00:32.831Z,0.01
2019-03-04T04:01:42.792Z,0.09
2019-03-04T04:02:52.744Z,0.05
2019-03-04T04:04:02.800Z,0.06
2019-03-04T04:05:12.766Z,0.11
2019-03-04T04:06:22.691Z,0.05
2019-03-04T04:07:32.625Z,0.08
2019-03-04T04:08:42.562Z,0.09
2019-03-04T04:09:52.610Z,0.12
2019-03-04T04:11:02.548Z,0.11
2019-03-04T04:12:12.476Z,0.13
2019-03-04T04:13:22.401Z,0.06
2019-03-04T04:14:34.213Z,0.12
2019-03-04T04:15:44.249Z,0.15
2019-03-04T04:16:54.194Z,0.09
2019-03-04T04:18:04.134Z,0.09
2019-03-04T04:19:14.054Z,0.2
2019-03-04T04:20:24.067Z,0.06
2019-03-04T04:21:34.164Z,0.16
2019-03-04T04:22:44.111Z,0.19
2019-03-04T04:23:54.034Z,0.16
2019-03-04T04:25:03.969Z,0.19
2019-03-04T04:26:13.894Z,0.13
2019-03-04T04:27:23.924Z,0.18
2019-03-04T04:28:33.853Z,0.16
2019-03-04T04:29:43.797Z,0.19
2019-03-04T04:30:53.731Z,0.15
2019-03-04T04:32:03.677Z,0.18
2019-03-04T04:33:13.672Z,0.18
2019-03-04T04:34:23.688Z,0.23
2019-03-04T04:35:33.633Z,0.18
2019-03-04T04:36:43.565Z,0.11
2019-03-04T04:37:53.230Z,0.08
2019-03-04T04:39:04.077Z,0.13
2019-03-04T04:40:13.998Z,0.09
2019-03-04T04:41:23.926Z,0.05
2019-03-04T04:42:33.845Z,0.06
2019-03-04T04:43:43.763Z,0.11
2019-03-04T04:44:53.779Z,0.12
2019-03-04T04:46:03.714Z,0.11
2019-03-04T04:47:13.633Z,0.08
2019-03-04T04:48:23.551Z,0.11
2019-03-04T04:49:33.531Z,0.09
2019-03-04T04:50:43.522Z,0.09
2019-03-04T04:51:53.186Z,0.13
2019-03-04T04:53:03.108Z,0.06
2019-03-04T04:54:13.031Z,0.05
2019-03-04T04:55:22.953Z,0.09
2019-03-04T04:56:32.675Z,0.08
2019-03-04T04:57:42.608Z,0.05
2019-03-04T04:58:52.527Z,0.06
2019-03-04T05:00:02.670Z,0.08
2019-03-04T05:01:12.590Z,0.01
2019-03-04T05:02:22.608Z,-0.03
2019-03-04T05:03:32.526Z,0.01
2019-03-04T05:04:42.446Z,0.01
2019-03-04T05:05:52.365Z,0.11
2019-03-04T05:07:02.279Z,-0.03
2019-03-04T05:08:12.257Z,0.02
2019-03-04T05:09:22.178Z,0.05
2019-03-04T05:10:32.105Z,0.15
2019-03-04T05:11:42.027Z,0.12
2019-03-04T05:12:51.951Z,0.11
2019-03-04T05:14:01.874Z,-0.05
2019-03-04T05:15:11.818Z,0.11
2019-03-04T05:16:21.739Z,0.01
2019-03-04T05:17:31.659Z,0.11
2019-03-04T05:18:41.615Z,0.05
2019-03-04T05:19:51.636Z,0.05
2019-03-04T05:21:01.555Z,0.05
2019-03-04T05:22:11.480Z,0.05
2019-03-04T05:23:21.410Z,0.11
2019-03-04T05:24:32.151Z,0.01
2019-03-04T05:25:42.177Z,0.12
2019-03-04T05:26:52.097Z,0.09
2019-03-04T05:28:02.017Z,0.06
2019-03-04T05:29:11.957Z,0.12
2019-03-04T05:30:21.893Z,0.09
2019-03-04T05:31:31.865Z,0.01
2019-03-04T05:32:41.795Z,0.08
2019-03-04T05:33:51.468Z,0.01
2019-03-04T05:35:01.390Z,-0.07
2019-03-04T05:36:11.311Z,-0.09
2019-03-04T05:37:21.302Z,-0.06
2019-03-04T05:38:31.219Z,-0.03
2019-03-04T05:39:41.141Z,-0.09
2019-03-04T05:40:51.065Z,0.02
2019-03-04T05:42:00.998Z,-0.12
2019-03-04T05:43:10.924Z,-0.05
2019-03-04T05:44:20.854Z,-0.06
2019-03-04T05:45:30.790Z,-0.06
2019-03-04T05:46:40.711Z,-0.06
2019-03-04T05:47:50.650Z,-0.03
2019-03-04T05:49:00.669Z,-0.06
2019-03-04T05:50:10.601Z,-0.06
2019-03-04T05:51:20.272Z,-0.12
2019-03-04T05:52:30.197Z,-0.12
2019-03-04T05:53:40.124Z,-0.09
2019-03-04T05:54:50.106Z,-0.09
2019-03-04T05:56:00.030Z,0.08
2019-03-04T05:57:09.967Z,0.02
2019-03-04T05:58:19.902Z,0.11
2019-03-04T05:59:29.840Z,0.12
2019-03-04T06:00:39.861Z,-0.05
2019-03-04T06:01:49.786Z,0.13
2019-03-04T06:02:59.707Z,0.08
2019-03-04T06:04:09.625Z,0
2019-03-04T06:05:19.543Z,0.02
2019-03-04T06:06:29.539Z,0.06
2019-03-04T06:07:39.456Z,0.05
2019-03-04T06:08:49.387Z,0.05
2019-03-04T06:09:59.364Z,0.09
2019-03-04T06:11:09.324Z,0.08
2019-03-04T06:12:19.392Z,0.09
2019-03-04T06:13:29.310Z,0.11
2019-03-04T06:14:39.233Z,0.11
2019-03-04T06:15:49.153Z,0.05
2019-03-04T06:16:59.070Z,0.06
2019-03-04T06:18:08.994Z,0.05
2019-03-04T06:19:18.918Z,0.08
2019-03-04T06:20:28.839Z,0.06
2019-03-04T06:21:38.759Z,0.11
2019-03-04T06:22:48.721Z,0.05
2019-03-04T06:23:58.706Z,0.15
2019-03-04T06:25:09.979Z,0.09
2019-03-04T06:26:19.902Z,0.11
2019-03-04T06:27:29.842Z,0.09
2019-03-04T06:28:39.766Z,0.2
2019-03-04T06:29:49.731Z,0.15
2019-03-04T06:30:59.688Z,0.16
2019-03-04T06:32:09.611Z,0.19
2019-03-04T06:33:19.529Z,0.11
2019-03-04T06:34:29.458Z,0.11
2019-03-04T06:35:39.529Z,0.13
2019-03-04T06:36:49.453Z,0.06
2019-03-04T06:38:00.476Z,0.13
2019-03-04T06:39:10.397Z,0.13
2019-03-04T06:40:20.325Z,0.16
2019-03-04T06:41:30.269Z,0.19
2019-03-04T06:42:40.187Z,0.13
2019-03-04T06:43:50.114Z,0.18
2019-03-04T06:45:00.051Z,0.13
2019-03-04T06:46:10.016Z,0.16
2019-03-04T06:47:20.034Z,0.18
2019-03-04T06:48:29.955Z,0.18
2019-03-04T06:49:39.880Z,0.16
2019-03-04T06:50:49.805Z,0.09
2019-03-04T06:51:59.741Z,0.16
2019-03-04T06:53:09.707Z,0.09
2019-03-04T06:54:19.639Z,0.2
2019-03-04T06:55:29.556Z,0.13
2019-03-04T06:56:39.477Z,0.26
2019-03-04T06:57:49.406Z,0.18
2019-03-04T06:58:59.427Z,0.26
2019-03-04T07:00:09.373Z,0.27
2019-03-04T07:01:19.295Z,0.26
2019-03-04T07:02:29.268Z,0.29
2019-03-04T07:03:39.325Z,0.26
2019-03-04T07:04:49.314Z,0.29
2019-03-04T07:05:59.234Z,0.29
2019-03-04T07:07:09.202Z,0.26
2019-03-04T07:08:19.136Z,0.3
2019-03-04T07:09:29.071Z,0.26
2019-03-04T07:10:39.041Z,0.31
2019-03-04T07:11:48.722Z,0.27
2019-03-04T07:12:58.657Z,0.34
2019-03-04T07:14:08.592Z,0.3
2019-03-04T07:15:18.527Z,0.3
2019-03-04T07:16:28.500Z,0.33
2019-03-04T07:17:39.833Z,0.33
2019-03-04T07:18:49.761Z,0.39
2019-03-04T07:19:59.689Z,0.39
2019-03-04T07:21:09.630Z,0.44
2019-03-04T07:22:19.654Z,0.37
2019-03-04T07:23:29.337Z,0.44
2019-03-04T07:24:39.269Z,0.45
2019-03-04T07:25:49.187Z,0.45
2019-03-04T07:26:59.118Z,0.44
2019-03-04T07:28:09.045Z,0.39
2019-03-04T07:29:19.972Z,0.33
2019-03-04T07:30:29.643Z,0.47
2019-03-04T07:31:39.561Z,0.45
2019-03-04T07:32:49.482Z,0.42
2019-03-04T07:33:59.572Z,0.47
2019-03-04T07:35:09.496Z,0.48
2019-03-04T07:36:19.416Z,0.44
2019-03-04T07:37:29.094Z,0.44
2019-03-04T07:38:39.017Z,0.48
2019-03-04T07:39:49.100Z,0.56
2019-03-04T07:40:59.025Z,0.45
2019-03-04T07:42:08.968Z,0.55
2019-03-04T07:43:18.891Z,0.52
2019-03-04T07:44:28.824Z,0.51
2019-03-04T07:45:38.847Z,0.58
2019-03-04T07:46:48.768Z,0.56
2019-03-04T07:48:00.245Z,0.52
2019-03-04T07:49:10.237Z,0.67
2019-03-04T07:50:20.161Z,0.61
2019-03-04T07:51:30.179Z,0.67
2019-03-04T07:52:40.101Z,0.66
2019-03-04T07:53:51.448Z,0.67
2019-03-04T07:55:01.364Z,0.7
2019-03-04T07:56:11.295Z,0.68
2019-03-04T07:57:21.318Z,0.7
2019-03-04T07:58:31.295Z,0.68
2019-03-04T07:59:41.224Z,0.76
2019-03-04T08:00:51.164Z,0.73
2019-03-04T08:02:01.093Z,0.74
2019-03-04T08:03:11.117Z,0.74
2019-03-04T08:04:20.790Z,0.76
2019-03-04T08:05:30.723Z,0.71
2019-03-04T08:06:40.658Z,0.78
2019-03-04T08:07:50.590Z,0.77
2019-03-04T08:09:00.671Z,0.81
2019-03-04T08:10:10.619Z,0.82
2019-03-04T08:11:20.539Z,0.86
2019-03-04T08:12:30.464Z,0.85
2019-03-04T08:13:40.398Z,0.92
2019-03-04T08:14:50.333Z,0.85
2019-03-04T08:16:00.022Z,0.99
2019-03-04T08:17:09.945Z,0.95
2019-03-04T08:18:19.871Z,0.95
2019-03-04T08:19:29.809Z,0.96
2019-03-04T08:20:39.880Z,1.04
2019-03-04T08:21:49.805Z,1.07
2019-03-04T08:22:59.728Z,1.09
2019-03-04T08:24:09.658Z,1.1
2019-03-04T08:25:19.578Z,1.12
2019-03-04T08:26:29.660Z,1.12
2019-03-04T08:27:39.588Z,1.21
2019-03-04T08:28:49.521Z,1.18
2019-03-04T08:29:59.199Z,1.21
2019-03-04T08:31:09.044Z,1.21
2019-03-04T08:32:18.714Z,1.25
2019-03-04T08:33:28.636Z,1.22
2019-03-04T08:34:38.553Z,1.31
2019-03-04T08:35:48.476Z,1.34
2019-03-04T08:36:58.397Z,1.43
2019-03-04T08:38:08.417Z,1.31
2019-03-04T08:39:18.351Z,1.34
2019-03-04T08:40:30.520Z,1.43
2019-03-04T08:41:40.455Z,1.49
2019-03-04T08:42:50.126Z,1.5
2019-03-04T08:44:00.158Z,1.58
2019-03-04T08:45:10.077Z,1.52
2019-03-04T08:46:19.995Z,1.53
2019-03-04T08:47:29.918Z,1.58
2019-03-04T08:48:39.849Z,1.63
2019-03-04T08:49:49.773Z,1.63
2019-03-04T08:50:59.695Z,1.7
2019-03-04T08:52:10.028Z,1.61
2019-03-04T08:53:19.711Z,1.68
2019-03-04T08:54:29.661Z,1.74
2019-03-04T08:55:39.596Z,1.75
2019-03-04T08:56:50.666Z,1.76
2019-03-04T08:58:09.060Z,1.74
2019-03-04T08:59:18.996Z,1.7
2019-03-04T09:00:28.917Z,1.74
2019-03-04T09:01:39.076Z,1.86
2019-03-04T09:02:49.026Z,1.84
2019-03-04T09:03:58.953Z,1.85
2019-03-04T09:05:08.881Z,1.86
2019-03-04T09:06:18.798Z,1.84
2019-03-04T09:07:28.769Z,1.98
2019-03-04T09:08:38.692Z,2.04
2019-03-04T09:09:48.626Z,2.03
2019-03-04T09:10:58.549Z,2.04
2019-03-04T09:12:08.473Z,2.03
2019-03-04T09:13:18.544Z,2.05
2019-03-04T09:14:28.504Z,2.14
2019-03-04T09:15:38.433Z,2.03
2019-03-04T09:16:48.365Z,2.1
2019-03-04T09:17:58.284Z,2.18
2019-03-04T09:19:08.362Z,2.21
2019-03-04T09:20:18.285Z,2.3
2019-03-04T09:21:28.215Z,2.28
2019-03-04T09:22:38.134Z,2.16
2019-03-04T09:23:49.958Z,2.36
2019-03-04T09:25:00.192Z,2.32
2019-03-04T09:26:10.239Z,2.34
2019-03-04T09:27:19.963Z,2.34
2019-03-04T09:28:29.910Z,2.41
2019-03-04T09:29:39.833Z,2.41
2019-03-04T09:30:52.081Z,2.4
2019-03-04T09:32:02.015Z,2.46
2019-03-04T09:33:11.951Z,2.52
2019-03-04T09:34:21.875Z,2.52
2019-03-04T09:35:32.608Z,2.52
2019-03-04T09:36:42.756Z,2.55
2019-03-04T09:37:52.701Z,2.52
2019-03-04T09:39:02.646Z,2.59
2019-03-04T09:40:12.322Z,2.61
2019-03-04T09:41:22.244Z,2.57
2019-03-04T09:42:32.267Z,2.68
2019-03-04T09:43:42.203Z,2.68
2019-03-04T09:44:52.165Z,2.69
2019-03-04T09:46:02.086Z,2.64
2019-03-04T09:47:12.007Z,2.64
2019-03-04T09:48:21.882Z,2.68
2019-03-04T09:49:31.809Z,2.72
2019-03-04T09:50:41.726Z,2.72
2019-03-04T09:51:51.658Z,2.82
2019-03-04T09:53:01.576Z,2.83
2019-03-04T09:54:11.668Z,2.88
2019-03-04T09:55:21.592Z,2.88
2019-03-04T09:56:31.510Z,2.9
2019-03-04T09:57:41.447Z,2.85
2019-03-04T09:58:51.386Z,2.85
2019-03-04T10:00:01.316Z,2.91
2019-03-04T10:01:11.303Z,2.95
2019-03-04T10:02:21.239Z,3.01
2019-03-04T10:03:31.170Z,3
2019-03-04T10:04:41.095Z,2.93
2019-03-04T10:05:51.016Z,2.98
2019-03-04T10:07:00.961Z,3.09
2019-03-04T10:08:10.885Z,3.01
2019-03-04T10:09:20.558Z,3.08
2019-03-04T10:10:30.483Z,3.08
2019-03-04T10:11:40.407Z,3.18
2019-03-04T10:12:50.074Z,3.15
2019-03-04T10:13:59.997Z,3.13
2019-03-04T10:15:13.462Z,3.16
2019-03-04T10:16:25.713Z,3.16
2019-03-04T10:17:35.743Z,3.12
2019-03-04T10:18:45.670Z,3.18
2019-03-04T10:19:55.611Z,3.15
2019-03-04T10:21:05.292Z,3.18
2019-03-04T10:22:15.219Z,3.15
2019-03-04T10:23:25.246Z,3.29
2019-03-04T10:24:35.177Z,3.26
2019-03-04T10:25:45.098Z,3.27
2019-03-04T10:26:55.019Z,3.37
2019-03-04T10:28:04.940Z,3.34
2019-03-04T10:29:14.714Z,3.36
2019-03-04T10:30:24.635Z,3.37
2019-03-04T10:31:34.562Z,3.33
2019-03-04T10:32:44.484Z,3.46
2019-03-04T10:33:54.405Z,3.4
2019-03-04T10:35:04.432Z,3.46
2019-03-04T10:36:14.357Z,3.46
2019-03-04T10:37:24.276Z,3.45
2019-03-04T10:38:33.963Z,3.43
2019-03-04T10:39:43.897Z,3.46
2019-03-04T10:40:53.919Z,3.5
2019-03-04T10:42:05.625Z,3.49
2019-03-04T10:43:15.553Z,3.45
2019-03-04T10:44:25.564Z,3.45
2019-03-04T10:45:38.299Z,3.49
2019-03-04T10:46:48.227Z,3.45
2019-03-04T10:47:58.145Z,3.49
2019-03-04T10:49:08.068Z,3.52
2019-03-04T10:50:17.993Z,3.52
2019-03-04T10:51:27.915Z,3.56
2019-03-04T10:52:37.945Z,3.56
2019-03-04T10:53:47.869Z,3.64
2019-03-04T10:54:57.596Z,3.63
2019-03-04T10:56:07.516Z,3.68
2019-03-04T10:57:17.439Z,3.68
2019-03-04T10:58:27.375Z,3.56
2019-03-04T10:59:37.301Z,3.68
2019-03-04T11:00:47.230Z,3.63
2019-03-04T11:01:57.161Z,3.66
2019-03-04T11:03:07.079Z,3.66
2019-03-04T11:04:17.104Z,3.7
2019-03-04T11:05:27.083Z,3.7
2019-03-04T11:06:37.013Z,3.64
2019-03-04T11:07:46.937Z,3.59
2019-03-04T11:08:56.861Z,3.63
2019-03-04T11:10:06.797Z,3.7
2019-03-04T11:11:16.730Z,3.64
2019-03-04T11:12:35.143Z,3.74
2019-03-04T11:13:45.091Z,3.64
2019-03-04T11:14:55.020Z,3.58
2019-03-04T11:16:05.046Z,3.71
2019-03-04T11:17:14.977Z,3.66
2019-03-04T11:18:24.899Z,3.77
2019-03-04T11:19:34.826Z,3.73
2019-03-04T11:20:44.757Z,3.77
2019-03-04T11:21:54.686Z,3.84
2019-03-04T11:23:04.612Z,3.91
2019-03-04T11:24:14.535Z,3.94
2019-03-04T11:25:24.455Z,3.92
2019-03-04T11:26:34.379Z,3.89
2019-03-04T11:27:44.356Z,3.95
2019-03-04T11:28:54.307Z,4.02
2019-03-04T11:30:04.249Z,4.09
2019-03-04T11:31:14.187Z,4.07
2019-03-04T11:32:24.109Z,4.18
2019-03-04T11:33:34.032Z,4.28
2019-03-04T11:34:45.186Z,4.31
2019-03-04T11:35:55.116Z,4.38
2019-03-04T11:37:05.040Z,4.3
2019-03-04T11:38:14.970Z,4.36
2019-03-04T11:39:25.018Z,4.42
2019-03-04T11:40:34.939Z,4.4
2019-03-04T11:41:44.867Z,4.5
2019-03-04T11:42:55.544Z,4.48
2019-03-04T11:44:05.499Z,4.64
2019-03-04T11:45:15.474Z,4.67
2019-03-04T11:46:25.399Z,4.75
2019-03-04T11:47:35.394Z,4.83
2019-03-04T11:48:45.314Z,4.92
2019-03-04T11:49:58.184Z,4.94
2019-03-04T11:51:08.250Z,5.01
2019-03-04T11:52:18.216Z,5.08
2019-03-04T11:53:28.146Z,5.12
2019-03-04T11:54:38.081Z,5.07
2019-03-04T11:55:48.013Z,5.12
2019-03-04T11:56:58.883Z,5.12
2019-03-04T11:58:08.804Z,5.23
2019-03-04T11:59:18.517Z,5.28
2019-03-04T12:00:28.448Z,5.28
2019-03-04T12:01:38.376Z,5.29
2019-03-04T12:02:48.314Z,5.26
2019-03-04T12:03:58.238Z,5.33
2019-03-04T12:05:08.166Z,5.37
2019-03-04T12:06:18.088Z,5.37
2019-03-04T12:07:28.008Z,5.47
2019-03-04T12:08:37.934Z,5.41
2019-03-04T12:09:47.926Z,5.46
2019-03-04T12:10:57.924Z,5.41
2019-03-04T12:12:07.856Z,5.36
2019-03-04T12:13:17.779Z,5.31
2019-03-04T12:14:27.808Z,5.25
2019-03-04T12:15:37.485Z,5.31
2019-03-04T12:16:47.413Z,5.29
2019-03-04T12:17:57.374Z,5.13
2019-03-04T12:19:07.317Z,5.19
2019-03-04T12:20:17.238Z,5.16
2019-03-04T12:21:27.015Z,5.16
2019-03-04T12:22:36.692Z,5.16
2019-03-04T12:23:46.625Z,5.04
2019-03-04T12:24:56.549Z,5.01
2019-03-04T12:26:06.527Z,5.02
2019-03-04T12:27:16.458Z,5.07
2019-03-04T12:28:26.385Z,5.07
2019-03-04T12:29:36.309Z,5.15
2019-03-04T12:30:46.234Z,5.22
2019-03-04T12:31:56.212Z,5.26
2019-03-04T12:33:06.158Z,5.37
2019-03-04T12:34:24.367Z,5.49
2019-03-04T12:35:34.541Z,5.65
2019-03-04T12:36:45.447Z,5.77
2019-03-04T12:37:55.244Z,5.81
2019-03-04T12:39:05.166Z,5.94
2019-03-04T12:40:15.115Z,5.79
2019-03-04T12:41:25.047Z,5.99
2019-03-04T12:42:34.978Z,5.87
2019-03-04T12:43:44.954Z,5.92
2019-03-04T12:44:54.885Z,5.99
2019-03-04T12:46:04.809Z,5.91
2019-03-04T12:47:16.388Z,5.98
2019-03-04T12:48:26.463Z,5.98
2019-03-04T12:49:36.512Z,6.1
2019-03-04T12:50:46.461Z,6.12
2019-03-04T12:51:56.156Z,6.13
2019-03-04T12:53:06.087Z,6.22
2019-03-04T12:54:16.016Z,6.2
2019-03-04T12:55:25.735Z,6.19
2019-03-04T12:56:35.692Z,6.05
2019-03-04T12:57:45.626Z,6.01
2019-03-04T12:58:55.552Z,5.97
2019-03-04T13:00:05.481Z,5.9
2019-03-04T13:01:15.570Z,5.88
2019-03-04T13:02:25.500Z,5.8
2019-03-04T13:03:35.447Z,5.77
2019-03-04T13:04:45.371Z,5.77
2019-03-04T13:05:55.294Z,5.73
2019-03-04T13:07:05.077Z,5.76
2019-03-04T13:08:14.998Z,5.59
2019-03-04T13:09:24.945Z,5.64
2019-03-04T13:10:36.621Z,5.65
2019-03-04T13:11:46.293Z,5.64
2019-03-04T13:12:56.373Z,5.54
2019-03-04T13:14:06.300Z,5.49
2019-03-04T13:15:16.221Z,5.46
2019-03-04T13:16:26.146Z,5.31
2019-03-04T13:17:36.069Z,5.36
2019-03-04T13:18:46.043Z,5.28
2019-03-04T13:19:55.969Z,5.2
2019-03-04T13:21:05.892Z,5.18
2019-03-04T13:22:15.821Z,5.05
2019-03-04T13:23:25.740Z,5.01
2019-03-04T13:24:35.710Z,5.02
2019-03-04T13:25:45.633Z,5.02
2019-03-04T13:26:57.358Z,4.97
2019-03-04T13:28:13.247Z,5.01
2019-03-04T13:29:23.170Z,4.89
2019-03-04T13:30:33.111Z,4.83
2019-03-04T13:31:43.039Z,4.83
2019-03-04T13:32:52.960Z,4.76
2019-03-04T13:34:02.881Z,4.76
2019-03-04T13:35:12.803Z,4.74
2019-03-04T13:36:32.205Z,4.76
2019-03-04T13:37:42.835Z,4.68
2019-03-04T13:38:52.764Z,4.79
2019-03-04T13:40:02.748Z,4.75
2019-03-04T13:41:12.684Z,4.67
2019-03-04T13:42:22.764Z,4.68
2019-03-04T13:43:32.687Z,4.7
2019-03-04T13:44:42.609Z,4.66
2019-03-04T13:45:52.531Z,4.56
2019-03-04T13:47:02.465Z,4.58
2019-03-04T13:48:12.440Z,4.66
2019-03-04T13:49:22.358Z,4.52
2019-03-04T13:50:32.285Z,4.49
2019-03-04T13:51:42.210Z,4.5
2019-03-04T13:52:52.136Z,4.49
2019-03-04T13:54:02.177Z,4.49
2019-03-04T13:55:12.098Z,4.5
2019-03-04T13:56:22.032Z,4.5
2019-03-04T13:57:31.954Z,4.53
2019-03-04T13:58:41.884Z,4.6
2019-03-04T13:59:51.859Z,4.56
2019-03-04T14:01:01.779Z,4.49
2019-03-04T14:02:11.698Z,4.39
2019-03-04T14:03:21.628Z,4.48
2019-03-04T14:04:31.553Z,4.52
2019-03-04T14:05:41.531Z,4.56
2019-03-04T14:06:53.461Z,4.63
2019-03-04T14:08:03.533Z,4.5
2019-03-04T14:09:13.456Z,4.49
2019-03-04T14:10:23.384Z,4.46
2019-03-04T14:11:33.413Z,4.4
2019-03-04T14:12:43.346Z,4.53
2019-03-04T14:13:53.025Z,4.5
2019-03-04T14:15:02.968Z,4.5
2019-03-04T14:16:12.904Z,4.53
2019-03-04T14:17:22.934Z,4.5
2019-03-04T14:18:32.861Z,4.56
2019-03-04T14:19:42.793Z,4.56
2019-03-04T14:20:54.209Z,4.48
2019-03-04T14:22:04.134Z,4.48
2019-03-04T14:23:14.118Z,4.5
2019-03-04T14:24:24.039Z,4.5
2019-03-04T14:25:33.960Z,4.58
2019-03-04T14:26:43.894Z,4.57
2019-03-04T14:27:53.823Z,4.56
2019-03-04T14:29:03.598Z,4.45
2019-03-04T14:30:13.524Z,4.45
2019-03-04T14:31:23.446Z,4.38
2019-03-04T14:32:33.367Z,4.28
2019-03-04T14:33:43.296Z,4.3
2019-03-04T14:34:53.353Z,4.22
2019-03-04T14:36:03.279Z,4.2
2019-03-04T14:37:13.211Z,4.09
2019-03-04T14:38:23.135Z,4.04
2019-03-04T14:39:33.060Z,3.96
2019-03-04T14:40:43.035Z,3.91
2019-03-04T14:41:52.963Z,4
2019-03-04T14:43:02.893Z,3.91
2019-03-04T14:44:12.821Z,3.74
2019-03-04T14:45:22.746Z,3.84
2019-03-04T14:46:32.725Z,3.78
2019-03-04T14:47:42.640Z,3.74
2019-03-04T14:48:52.588Z,3.68
2019-03-04T14:50:14.251Z,3.67
2019-03-04T14:51:24.202Z,3.59
2019-03-04T14:52:34.130Z,3.56
2019-03-04T14:53:44.050Z,3.49
2019-03-04T14:54:53.973Z,3.43
2019-03-04T14:56:06.163Z,3.46
2019-03-04T14:57:16.197Z,3.33
2019-03-04T14:58:26.137Z,3.33
2019-03-04T14:59:36.071Z,3.21
2019-03-04T15:00:45.996Z,3.22
2019-03-04T15:01:55.924Z,3.24
2019-03-04T15:03:05.952Z,3.15
2019-03-04T15:04:27.990Z,3.22
2019-03-04T15:05:37.915Z,3.12
2019-03-04T15:06:47.844Z,3.08
2019-03-04T15:07:58.282Z,3.09
2019-03-04T15:09:10.288Z,3.08
2019-03-04T15:10:20.304Z,3.01
2019-03-04T15:11:30.246Z,3.09
2019-03-04T15:12:40.166Z,3.03
2019-03-04T15:13:50.242Z,3.08
2019-03-04T15:15:00.227Z,2.97
2019-03-04T15:16:10.165Z,2.97
2019-03-04T15:17:20.092Z,2.91
2019-03-04T15:18:30.011Z,2.93
2019-03-04T15:19:40.388Z,2.94
2019-03-04T15:20:50.308Z,2.97
2019-03-04T15:22:00.230Z,2.93
2019-03-04T15:23:10.157Z,2.91
2019-03-04T15:24:20.078Z,2.82
2019-03-04T15:25:30.110Z,2.79
2019-03-04T15:26:48.609Z,2.79
2019-03-04T15:27:58.539Z,2.77
2019-03-04T15:29:09.709Z,2.72
2019-03-04T15:30:19.640Z,2.77
2019-03-04T15:31:31.129Z,2.68
2019-03-04T15:32:41.057Z,2.39
2019-03-04T15:33:50.982Z,2.39
2019-03-04T15:35:00.900Z,2.39